Usman', Russia
Current Conditions -  °F | °C
As of 7:00 AM on Wednesday 26 Nov 2014 (Local Time) from UUOO Reporting Station
Clear Clear  
Wind Chill:   Ceiling: Unl
Heat Index:   Visibility: 6mi
Dew Point: -2°   Wind: 2mph
Humidity: 85%   Direction: NA
Pressure: 30.5"   Gusts: NA
Location:  52.04°N, 39.42°E
Report Text: UUOO 260400Z VRB01MPS CAVOK M17/M19 Q1033 NOSIG RMK 30090070
Loading
Personal Weather Stations






























Interactive Weather Map New forecast layout! Learn more

10-Day Weather Forecast

Advertisements
Track Severe Weather on mobile